Monument Valley, Utah
Current Conditions -  °F | °C
As of 2:15 AM on Saturday 22 Nov 2014 (Local Time) from KBDG Reporting Station
Clear Clear  
Wind Chill: 28°   Ceiling: Unl
Heat Index: 28°   Visibility: 10mi
Dew Point: 19°   Wind: 3mph
Humidity: 70%   Direction: 330°NNW
Pressure: 30.18"   Gusts: NA
Location:  37.1°N, 110.32°W
Report Text: KBDG 220915Z AUTO 33003KT 10SM CLR M02/M07 A3018 RMK AO1 T10221070
Loading
Personal Weather Stations






























Interactive Weather Map New forecast layout! Learn more

10-Day Weather Forecast

Advertisements
Track Severe Weather on mobile